Ship Status Report: callsign S-L-120

sailwx.info

Track history (hours):
 
Tides and Currents Weather Stations Pressure Air Temp Water Temp Dewpoint Dewpoint Depression Visibility Wind Speed Wind Dir Waves Ship Positions

Callsign S-L-120 (name unknown)

Last reported at 2018-Mar-07 21:59 UTC. Time now 2018-May-26 03:43 UTC.
Position N 33°53' W 119°38'.
Warning: this ship's position is months out of date.

Date/timePositionNaut miles runAvg speedWind from/ knotsBaromVisibWave heightAir tempDewpointWater temp
2018-Mar-07 21:59N 33°53' W 119°38'0 0.5
2018-Mar-07 21:30N 33°53' W 119°38'0 0.5
2018-Mar-07 20:59N 33°53' W 119°38'6 5.6
2018-Mar-07 19:54N 33°47' W 119°39'811.0
2018-Mar-07 19:13N 33°39' W 119°39'1 5.3
2018-Mar-07 19:00N 33°40' W 119°38'1 1.0
2018-Mar-07 18:30N 33°40' W 119°39'0 1.0
2018-Mar-07 18:00N 33°40' W 119°39'2 3.6
2018-Mar-07 17:30N 33°42' W 119°39'612.9
2018-Mar-07 17:00N 33°47' W 119°34'713.1
2018-Mar-07 16:30N 33°52' W 119°29'713.1
2018-Mar-07 15:56N 33°58' W 119°24'613.5
2018-Mar-07 15:29N 34°03' W 119°19'613.1
2018-Mar-07 15:00N 34°07' W 119°14'2 0.2
2018-Mar-07 03:28N 34°09' W 119°13'0 0.0
2018-Mar-07 02:57N 34°09' W 119°13'0 0.0
2018-Mar-07 02:26N 34°09' W 119°13'4 8.5
2018-Mar-07 02:01N 34°06' W 119°15'1120.2
2018-Mar-07 01:29N 33°59' W 119°24'1020.5
2018-Mar-07 01:00N 33°53' W 119°33'714.3
2018-Mar-07 00:31N 33°48' W 119°40'611.7
2018-Mar-07 00:00N 33°54' W 119°40'1 0.3
2018-Mar-06 20:35N 33°53' W 119°39'1316.5
2018-Mar-06 19:49N 33°41' W 119°41'0 1.5
2018-Mar-06 19:30N 33°41' W 119°41'2 2.3
2018-Mar-06 18:48N 33°40' W 119°42'1 3.8
2018-Mar-06 18:30N 33°40' W 119°41'1 1.1
2018-Mar-06 18:01N 33°41' W 119°40'0 0.7
2018-Mar-06 17:30N 33°41' W 119°40'918.8
2018-Mar-06 17:00N 33°48' W 119°33'1119.9
2018-Mar-06 16:29N 33°56' W 119°25'1020.0
2018-Mar-06 15:59N 34°04' W 119°18'713.8
2018-Mar-06 15:30N 34°09' W 119°13'  
2018-Mar-01 01:16N 34°09' W 119°13'2 6.3
2018-Mar-01 01:00N 34°08' W 119°13'714.7
2018-Mar-01 00:30N 34°03' W 119°06'1019.9
2018-Mar-01 00:00N 33°57' W 118°57'34 3.4
2018-Feb-28 14:01N 33°24' W 118°46'319.8
2018-Feb-28 13:53N 33°26' W 118°47'819.9
2018-Feb-28 13:30N 33°33' W 118°52'1019.7
2018-Feb-28 13:00N 33°42' W 118°56'1020.2
2018-Feb-28 12:30N 33°51' W 119°02'1020.0
2018-Feb-28 12:00N 33°60' W 119°08'1019.1
2018-Feb-28 11:29N 34°09' W 119°13'  
Track history (hours):
 
Tides and Currents Weather Stations Pressure Air Temp Water Temp Dewpoint Dewpoint Depression Visibility Wind Speed Wind Dir Waves Ship Positions

Callsign S-L-120 (name unknown)

Last reported at 2018-Mar-07 21:59 UTC. Time now 2018-May-26 03:43 UTC.
Position N 33°53' W 119°38'.
Warning: this ship's position is months out of date.

Date/timePositionNaut miles runAvg speedWind from/ knotsBaromVisibWave heightAir tempDewpointWater temp
2018-Mar-07 21:59N 33°53' W 119°38'0 0.5
2018-Mar-07 21:30N 33°53' W 119°38'0 0.5
2018-Mar-07 20:59N 33°53' W 119°38'6 5.6
2018-Mar-07 19:54N 33°47' W 119°39'811.0
2018-Mar-07 19:13N 33°39' W 119°39'1 5.3
2018-Mar-07 19:00N 33°40' W 119°38'1 1.0
2018-Mar-07 18:30N 33°40' W 119°39'0 1.0
2018-Mar-07 18:00N 33°40' W 119°39'2 3.6
2018-Mar-07 17:30N 33°42' W 119°39'612.9
2018-Mar-07 17:00N 33°47' W 119°34'713.1
2018-Mar-07 16:30N 33°52' W 119°29'713.1
2018-Mar-07 15:56N 33°58' W 119°24'613.5
2018-Mar-07 15:29N 34°03' W 119°19'613.1
2018-Mar-07 15:00N 34°07' W 119°14'2 0.2
2018-Mar-07 03:28N 34°09' W 119°13'0 0.0
2018-Mar-07 02:57N 34°09' W 119°13'0 0.0
2018-Mar-07 02:26N 34°09' W 119°13'4 8.5
2018-Mar-07 02:01N 34°06' W 119°15'1120.2
2018-Mar-07 01:29N 33°59' W 119°24'1020.5
2018-Mar-07 01:00N 33°53' W 119°33'714.3
2018-Mar-07 00:31N 33°48' W 119°40'611.7
2018-Mar-07 00:00N 33°54' W 119°40'1 0.3
2018-Mar-06 20:35N 33°53' W 119°39'1316.5
2018-Mar-06 19:49N 33°41' W 119°41'0 1.5
2018-Mar-06 19:30N 33°41' W 119°41'2 2.3
2018-Mar-06 18:48N 33°40' W 119°42'1 3.8
2018-Mar-06 18:30N 33°40' W 119°41'1 1.1
2018-Mar-06 18:01N 33°41' W 119°40'0 0.7
2018-Mar-06 17:30N 33°41' W 119°40'918.8
2018-Mar-06 17:00N 33°48' W 119°33'1119.9
2018-Mar-06 16:29N 33°56' W 119°25'1020.0
2018-Mar-06 15:59N 34°04' W 119°18'713.8
2018-Mar-06 15:30N 34°09' W 119°13'  
2018-Mar-01 01:16N 34°09' W 119°13'2 6.3
2018-Mar-01 01:00N 34°08' W 119°13'714.7
2018-Mar-01 00:30N 34°03' W 119°06'1019.9
2018-Mar-01 00:00N 33°57' W 118°57'34 3.4
2018-Feb-28 14:01N 33°24' W 118°46'319.8
2018-Feb-28 13:53N 33°26' W 118°47'819.9
2018-Feb-28 13:30N 33°33' W 118°52'1019.7
2018-Feb-28 13:00N 33°42' W 118°56'1020.2
2018-Feb-28 12:30N 33°51' W 119°02'1020.0
2018-Feb-28 12:00N 33°60' W 119°08'1019.1
2018-Feb-28 11:29N 34°09' W 119°13'  

Dump ship's entire track history